createdAt,value
2023-04-18T00:02:33.826Z,8.50
2023-04-18T00:05:37.421Z,7.57
2023-04-18T00:08:41.070Z,7.80
2023-04-18T00:11:44.357Z,9.05
2023-04-18T00:14:47.574Z,7.45
2023-04-18T00:17:50.824Z,6.93
2023-04-18T00:20:54.820Z,7.03
2023-04-18T00:23:58.246Z,7.10
2023-04-18T00:27:04.773Z,7.70
2023-04-18T00:30:09.591Z,7.00
2023-04-18T00:33:13.758Z,6.43
2023-04-18T00:36:16.874Z,7.32
2023-04-18T00:39:21.287Z,7.43
2023-04-18T00:42:26.642Z,7.65
2023-04-18T00:45:29.831Z,7.80
2023-04-18T00:48:33.052Z,7.90
2023-04-18T00:51:36.571Z,7.68
2023-04-18T00:54:42.435Z,5.90
2023-04-18T00:57:45.810Z,5.88
2023-04-18T01:00:49.450Z,6.07
2023-04-18T01:03:52.844Z,5.95
2023-04-18T01:06:56.578Z,5.43
2023-04-18T01:10:00.187Z,4.93
2023-04-18T01:13:17.700Z,3.78
2023-04-18T01:16:21.470Z,3.72
2023-04-18T01:19:26.458Z,2.92
2023-04-18T01:22:31.724Z,2.85
2023-04-18T01:25:35.479Z,2.40
2023-04-18T01:28:38.601Z,3.15
2023-04-18T01:31:44.265Z,3.70
2023-04-18T01:34:51.464Z,3.30
2023-04-18T01:37:54.718Z,4.10
2023-04-18T01:40:57.990Z,3.58
2023-04-18T01:44:01.590Z,3.28
2023-04-18T01:47:04.826Z,3.75
2023-04-18T01:50:09.557Z,3.50
2023-04-18T01:53:12.993Z,3.00
2023-04-18T01:56:16.617Z,2.60
2023-04-18T01:59:19.825Z,3.35
2023-04-18T02:02:23.160Z,2.95
2023-04-18T02:08:36.474Z,3.42
2023-04-18T02:11:42.398Z,3.33
2023-04-18T02:14:45.553Z,3.10
2023-04-18T02:17:49.777Z,2.97
2023-04-18T02:20:53.352Z,2.80
2023-04-18T02:23:58.580Z,2.42
2023-04-18T02:27:01.704Z,2.38
2023-04-18T02:30:05.040Z,2.33
2023-04-18T02:33:12.195Z,1.70
2023-04-18T02:36:15.616Z,2.13
2023-04-18T02:39:18.784Z,2.08
2023-04-18T02:42:22.006Z,1.90
2023-04-18T02:45:25.370Z,1.73
2023-04-18T02:48:29.103Z,1.20
2023-04-18T02:51:32.709Z,1.60
2023-04-18T02:54:37.464Z,1.50
2023-04-18T02:57:45.452Z,1.45
2023-04-18T03:01:07.108Z,1.42
2023-04-18T03:04:30.978Z,1.80
2023-04-18T03:07:39.721Z,2.25
2023-04-18T03:10:43.159Z,1.55
2023-04-18T03:13:46.660Z,1.48
2023-04-18T03:17:09.432Z,1.63
2023-04-18T03:23:19.675Z,1.63
2023-04-18T03:26:26.084Z,1.30
2023-04-18T03:29:31.744Z,1.40
2023-04-18T03:32:35.817Z,1.85
2023-04-18T03:35:39.158Z,1.00
2023-04-18T03:38:44.062Z,1.30
2023-04-18T03:41:47.319Z,1.20
2023-04-18T03:44:50.553Z,1.20
2023-04-18T03:47:53.875Z,1.58
2023-04-18T03:50:58.552Z,1.10
2023-04-18T03:54:06.868Z,1.10
2023-04-18T03:57:10.474Z,1.00
2023-04-18T04:00:15.174Z,1.42
2023-04-18T04:03:31.045Z,1.50
2023-04-18T04:06:34.498Z,1.75
2023-04-18T04:09:37.780Z,3.20
2023-04-18T04:12:42.683Z,2.55
2023-04-18T04:15:46.101Z,2.63
2023-04-18T04:18:49.381Z,2.30
2023-04-18T04:24:58.410Z,1.95
2023-04-18T04:28:08.834Z,2.10
2023-04-18T04:31:25.819Z,2.13
2023-04-18T04:34:29.100Z,2.03
2023-04-18T04:37:34.157Z,1.80
2023-04-18T04:40:52.217Z,1.90
2023-04-18T04:43:55.874Z,1.95
2023-04-18T04:47:04.177Z,1.80
2023-04-18T04:50:16.155Z,1.73
2023-04-18T04:53:19.588Z,1.98
2023-04-18T04:56:23.806Z,2.03
2023-04-18T04:59:27.422Z,2.00
2023-04-18T05:02:30.788Z,2.03
2023-04-18T05:05:34.189Z,1.85
2023-04-18T05:08:37.419Z,2.20
2023-04-18T05:11:40.596Z,2.20
2023-04-18T05:14:44.077Z,1.70
2023-04-18T05:17:47.452Z,1.60
2023-04-18T05:20:50.723Z,2.55
2023-04-18T05:23:53.875Z,2.00
2023-04-18T05:26:57.592Z,1.70
2023-04-18T05:30:01.063Z,1.52
2023-04-18T05:33:04.533Z,1.80
2023-04-18T05:36:10.600Z,1.30
2023-04-18T05:39:13.885Z,1.67
2023-04-18T05:42:17.010Z,1.73
2023-04-18T05:45:20.225Z,1.70
2023-04-18T05:48:24.140Z,1.65
2023-04-18T05:51:29.380Z,1.70
2023-04-18T05:54:32.529Z,1.65
2023-04-18T05:57:35.995Z,1.92
2023-04-18T06:00:39.133Z,1.30
2023-04-18T06:03:42.834Z,1.50
2023-04-18T06:06:46.269Z,1.67
2023-04-18T06:09:50.433Z,1.70
2023-04-18T06:12:53.627Z,1.80
2023-04-18T06:15:56.918Z,1.70
2023-04-18T06:19:01.433Z,1.75
2023-04-18T06:22:04.713Z,1.85
2023-04-18T06:25:10.955Z,2.13
2023-04-18T06:28:14.148Z,1.98
2023-04-18T06:31:17.934Z,2.00
2023-04-18T06:34:22.224Z,1.40
2023-04-18T06:37:25.469Z,2.10
2023-04-18T06:40:29.467Z,1.60
2023-04-18T06:43:32.622Z,2.10
2023-04-18T06:46:37.217Z,2.08
2023-04-18T06:49:40.442Z,1.95
2023-04-18T06:52:47.470Z,2.00
2023-04-18T06:55:50.799Z,1.58
2023-04-18T06:58:53.974Z,1.75
2023-04-18T07:01:57.820Z,2.40
2023-04-18T07:05:00.962Z,1.90
2023-04-18T07:08:04.761Z,2.38
2023-04-18T07:11:07.910Z,1.90
2023-04-18T07:14:13.199Z,1.88
2023-04-18T07:17:18.417Z,2.10
2023-04-18T07:20:22.103Z,2.33
2023-04-18T07:23:25.518Z,1.70
2023-04-18T07:26:28.755Z,1.70
2023-04-18T07:29:32.052Z,1.80
2023-04-18T07:32:35.563Z,1.80
2023-04-18T07:35:38.842Z,1.45
2023-04-18T07:38:42.192Z,1.80
2023-04-18T07:41:45.695Z,2.20
2023-04-18T07:44:50.196Z,2.42
2023-04-18T07:47:53.536Z,1.80
2023-04-18T07:50:56.739Z,1.48
2023-04-18T07:54:00.981Z,1.52
2023-04-18T07:57:04.218Z,1.50
2023-04-18T08:00:09.075Z,1.23
2023-04-18T08:03:18.126Z,1.40
2023-04-18T08:06:22.128Z,2.45
2023-04-18T08:09:25.663Z,2.40
2023-04-18T08:12:28.820Z,1.52
2023-04-18T08:15:33.223Z,1.80
2023-04-18T08:18:37.146Z,1.55
2023-04-18T08:21:40.365Z,1.90
2023-04-18T08:24:57.461Z,2.55
2023-04-18T08:28:06.829Z,4.43
2023-04-18T08:31:13.772Z,1.67
2023-04-18T08:34:17.050Z,1.70
2023-04-18T08:37:20.217Z,1.52
2023-04-18T08:40:23.563Z,2.95
2023-04-18T08:43:26.712Z,1.55
2023-04-18T08:46:30.839Z,1.80
2023-04-18T08:49:34.328Z,1.40
2023-04-18T08:52:38.465Z,2.13
2023-04-18T08:55:42.685Z,1.90
2023-04-18T08:58:45.928Z,1.65
2023-04-18T09:01:57.663Z,2.10
2023-04-18T09:05:00.952Z,1.58
2023-04-18T09:08:24.681Z,3.80
2023-04-18T09:11:29.870Z,3.15
2023-04-18T09:14:33.487Z,2.40
2023-04-18T09:17:38.853Z,2.80
2023-04-18T09:20:42.792Z,4.20
2023-04-18T09:23:48.095Z,4.90
2023-04-18T09:26:52.061Z,4.13
2023-04-18T09:29:57.746Z,6.88
2023-04-18T09:33:06.286Z,5.32
2023-04-18T09:36:20.985Z,3.05
2023-04-18T09:39:30.195Z,2.95
2023-04-18T09:42:37.836Z,3.45
2023-04-18T09:45:41.119Z,3.17
2023-04-18T09:48:44.497Z,2.35
2023-04-18T09:51:47.829Z,3.90
2023-04-18T09:54:58.878Z,3.55
2023-04-18T09:58:04.518Z,1.67
2023-04-18T10:01:08.198Z,1.98
2023-04-18T10:04:13.803Z,1.80
2023-04-18T10:07:18.301Z,1.60
2023-04-18T10:10:22.053Z,1.50
2023-04-18T10:13:27.762Z,1.75
2023-04-18T10:16:34.108Z,1.90
2023-04-18T10:19:42.705Z,2.05
2023-04-18T10:22:45.890Z,4.35
2023-04-18T10:25:50.047Z,2.47
2023-04-18T10:29:01.432Z,2.20
2023-04-18T10:32:07.984Z,3.50
2023-04-18T10:35:11.878Z,4.47
2023-04-18T10:38:18.240Z,6.28
2023-04-18T10:41:29.377Z,7.00
2023-04-18T10:44:32.588Z,3.42
2023-04-18T10:47:35.886Z,3.42
2023-04-18T10:51:19.238Z,3.42
2023-04-18T10:54:52.140Z,3.67
2023-04-18T10:57:59.168Z,5.57
2023-04-18T11:01:05.505Z,4.20
2023-04-18T11:04:14.542Z,4.05
2023-04-18T11:07:18.596Z,2.30
2023-04-18T11:10:24.999Z,3.38
2023-04-18T11:13:28.149Z,4.07
2023-04-18T11:16:33.316Z,9.70
2023-04-18T11:19:36.457Z,6.90
2023-04-18T11:22:47.730Z,6.32
2023-04-18T11:25:55.425Z,5.40
2023-04-18T11:28:59.352Z,7.15
2023-04-18T11:32:02.694Z,3.63
2023-04-18T11:35:06.369Z,2.60
2023-04-18T11:38:12.011Z,2.65
2023-04-18T11:41:16.288Z,2.60
2023-04-18T11:44:25.298Z,2.30
2023-04-18T11:47:34.999Z,3.03
2023-04-18T11:50:38.418Z,3.15
2023-04-18T11:53:41.829Z,4.40
2023-04-18T11:56:49.743Z,4.57
2023-04-18T11:59:58.368Z,3.92
2023-04-18T12:03:05.297Z,4.03
2023-04-18T12:06:08.737Z,3.67
2023-04-18T12:09:15.922Z,2.55
2023-04-18T12:12:20.233Z,2.42
2023-04-18T12:15:27.926Z,2.88
2023-04-18T12:18:32.088Z,3.17
2023-04-18T12:21:35.238Z,3.00
2023-04-18T12:24:38.594Z,2.47
2023-04-18T12:27:52.830Z,2.35
2023-04-18T12:30:56.372Z,2.57
2023-04-18T12:34:00.759Z,2.30
2023-04-18T12:37:05.607Z,2.10
2023-04-18T12:43:12.688Z,3.05
2023-04-18T12:46:15.946Z,1.70
2023-04-18T12:49:19.366Z,1.95
2023-04-18T12:52:22.525Z,2.47
2023-04-18T12:55:25.827Z,2.20
2023-04-18T12:58:29.164Z,2.80
2023-04-18T13:01:32.442Z,3.35
2023-04-18T13:04:36.209Z,2.92
2023-04-18T13:07:43.996Z,54.40
2023-04-18T13:10:48.230Z,4.20
2023-04-18T13:13:51.707Z,2.50
2023-04-18T13:16:54.899Z,2.80
2023-04-18T13:19:58.069Z,1.98
2023-04-18T13:23:03.032Z,2.00
2023-04-18T13:26:06.525Z,2.90
2023-04-18T13:29:09.857Z,1.45
2023-04-18T13:32:14.027Z,1.75
2023-04-18T13:35:17.234Z,1.55
2023-04-18T13:38:20.357Z,1.50
2023-04-18T13:41:24.140Z,2.80
2023-04-18T13:44:27.450Z,1.80
2023-04-18T13:47:31.172Z,2.30
2023-04-18T13:50:34.310Z,3.05
2023-04-18T13:53:41.845Z,1.60
2023-04-18T13:56:45.362Z,2.20
2023-04-18T13:59:54.525Z,1.98
2023-04-18T14:03:02.000Z,2.47
2023-04-18T14:06:06.397Z,2.85
2023-04-18T14:09:09.611Z,2.83
2023-04-18T14:12:12.827Z,4.45
2023-04-18T14:15:16.007Z,13.13
2023-04-18T14:18:22.245Z,17.30
2023-04-18T14:21:25.501Z,17.83
2023-04-18T14:24:29.059Z,11.52
2023-04-18T14:27:33.550Z,12.98
2023-04-18T14:30:37.395Z,11.02
2023-04-18T14:33:41.285Z,15.27
2023-04-18T14:36:44.499Z,18.67
2023-04-18T14:39:47.952Z,11.50
2023-04-18T14:42:51.498Z,10.80
2023-04-18T14:45:54.807Z,14.32
2023-04-18T14:48:58.559Z,18.00
2023-04-18T14:52:01.726Z,18.63
2023-04-18T14:55:06.032Z,13.25
2023-04-18T14:58:09.176Z,11.18
2023-04-18T15:01:12.366Z,9.48
2023-04-18T15:04:16.177Z,9.38
2023-04-18T15:07:19.689Z,8.80
2023-04-18T15:10:23.178Z,6.55
2023-04-18T15:13:26.280Z,4.63
2023-04-18T15:16:29.632Z,6.78
2023-04-18T15:19:33.025Z,5.57
2023-04-18T15:22:36.796Z,5.05
2023-04-18T15:25:40.133Z,6.15
2023-04-18T15:28:43.667Z,4.88
2023-04-18T15:31:47.494Z,4.30
2023-04-18T15:34:50.716Z,7.30
2023-04-18T15:37:54.804Z,5.43
2023-04-18T15:40:58.029Z,4.18
2023-04-18T15:44:01.179Z,3.90
2023-04-18T15:47:04.354Z,3.83
2023-04-18T15:50:08.755Z,6.25
2023-04-18T15:53:12.214Z,5.88
2023-04-18T15:56:15.611Z,3.65
2023-04-18T15:59:18.801Z,2.20
2023-04-18T16:02:22.341Z,4.60
2023-04-18T16:05:26.226Z,6.80
2023-04-18T16:08:31.312Z,6.15
2023-04-18T16:11:36.122Z,3.33
2023-04-18T16:14:39.453Z,4.32
2023-04-18T16:17:42.753Z,7.47
2023-04-18T16:20:46.510Z,6.35
2023-04-18T16:23:49.832Z,9.25
2023-04-18T16:26:54.165Z,8.45
2023-04-18T16:29:57.529Z,7.65
2023-04-18T16:33:00.777Z,8.05
2023-04-18T16:36:04.198Z,10.15
2023-04-18T16:39:07.382Z,12.57
2023-04-18T16:42:11.055Z,13.60
2023-04-18T16:45:15.422Z,9.63
2023-04-18T16:48:18.622Z,10.85
2023-04-18T16:51:21.734Z,9.27
2023-04-18T16:54:24.857Z,8.07
2023-04-18T16:57:28.077Z,9.32
2023-04-18T17:00:31.534Z,8.32
2023-04-18T17:03:35.437Z,7.95
2023-04-18T17:06:38.757Z,6.53
2023-04-18T17:09:42.424Z,6.63
2023-04-18T17:12:49.507Z,7.35
2023-04-18T17:15:52.736Z,7.68
2023-04-18T17:18:55.934Z,8.80
2023-04-18T17:21:59.400Z,8.82
2023-04-18T17:25:02.595Z,8.23
2023-04-18T17:28:06.104Z,9.85
2023-04-18T17:31:09.270Z,9.88
2023-04-18T17:34:12.588Z,8.30
2023-04-18T17:37:17.636Z,7.82
2023-04-18T17:40:20.955Z,7.93
2023-04-18T17:43:24.080Z,9.00
2023-04-18T17:46:27.419Z,9.35
2023-04-18T17:49:35.117Z,8.55
2023-04-18T17:52:39.575Z,9.98
2023-04-18T17:55:42.731Z,10.38
2023-04-18T17:58:46.116Z,8.63
2023-04-18T18:01:49.267Z,8.10
2023-04-18T18:04:52.484Z,8.32
2023-04-18T18:07:56.880Z,9.13
2023-04-18T18:14:05.099Z,8.70
2023-04-18T18:17:08.268Z,9.38
2023-04-18T18:20:11.456Z,9.30
2023-04-18T18:23:14.640Z,15.88
2023-04-18T18:26:17.774Z,17.75
2023-04-18T18:29:21.256Z,17.00
2023-04-18T18:32:24.622Z,16.20
2023-04-18T18:35:27.872Z,16.08
2023-04-18T18:38:31.039Z,15.68
2023-04-18T18:41:34.173Z,16.35
2023-04-18T18:44:37.283Z,17.42
2023-04-18T18:47:40.586Z,17.20
2023-04-18T18:50:43.878Z,15.50
2023-04-18T18:53:47.577Z,13.63
2023-04-18T18:56:51.924Z,11.32
2023-04-18T18:59:55.933Z,9.75
2023-04-18T19:02:59.381Z,9.27
2023-04-18T19:06:04.567Z,6.70
2023-04-18T19:09:07.866Z,4.88
2023-04-18T19:12:11.185Z,4.20
2023-04-18T19:15:14.342Z,4.18
2023-04-18T19:18:20.025Z,3.15
2023-04-18T19:21:23.266Z,6.07
2023-04-18T19:24:26.436Z,5.18
2023-04-18T19:27:29.544Z,5.93
2023-04-18T19:30:33.346Z,7.40
2023-04-18T19:33:36.617Z,7.70
2023-04-18T19:36:39.825Z,10.70
2023-04-18T19:39:42.962Z,9.25
2023-04-18T19:42:46.840Z,13.18
2023-04-18T19:45:53.781Z,14.13
2023-04-18T19:48:58.158Z,13.90
2023-04-18T19:52:01.359Z,17.30
2023-04-18T19:55:04.910Z,17.23
2023-04-18T19:58:08.009Z,17.33
2023-04-18T20:01:12.647Z,20.80
2023-04-18T20:04:15.961Z,21.75
2023-04-18T20:07:19.191Z,20.25
2023-04-18T20:10:25.528Z,20.23
2023-04-18T20:13:28.666Z,19.25
2023-04-18T20:16:32.421Z,18.20
2023-04-18T20:19:35.586Z,17.33
2023-04-18T20:22:40.910Z,16.33
2023-04-18T20:25:44.216Z,13.50
2023-04-18T20:31:50.412Z,12.13
2023-04-18T20:34:54.139Z,11.82
2023-04-18T20:37:58.413Z,9.02
2023-04-18T20:41:01.673Z,8.55
2023-04-18T20:44:10.696Z,9.38
2023-04-18T20:47:15.482Z,10.93
2023-04-18T20:50:19.166Z,5.43
2023-04-18T20:53:23.148Z,6.47
2023-04-18T20:56:26.406Z,5.23
2023-04-18T20:59:29.554Z,6.13
2023-04-18T21:02:32.990Z,6.72
2023-04-18T21:05:36.407Z,11.23
2023-04-18T21:08:40.202Z,13.35
2023-04-18T21:11:43.376Z,15.13
2023-04-18T21:14:46.517Z,13.05
2023-04-18T21:17:51.716Z,4.35
2023-04-18T21:20:55.151Z,2.60
2023-04-18T21:23:58.472Z,8.73
2023-04-18T21:27:03.143Z,12.32
2023-04-18T21:30:07.277Z,12.02
2023-04-18T21:33:10.437Z,15.40
2023-04-18T21:36:13.548Z,17.88
2023-04-18T21:39:16.675Z,12.68
2023-04-18T21:42:19.779Z,10.70
2023-04-18T21:45:23.102Z,6.30
2023-04-18T21:48:26.263Z,6.10
2023-04-18T21:51:29.368Z,6.18
2023-04-18T21:54:32.616Z,5.45
2023-04-18T21:57:36.464Z,10.07
2023-04-18T22:00:39.750Z,5.07
2023-04-18T22:03:43.157Z,2.20
2023-04-18T22:06:46.699Z,2.47
2023-04-18T22:09:50.915Z,2.28
2023-04-18T22:12:54.716Z,2.20
2023-04-18T22:15:58.792Z,2.10
2023-04-18T22:19:02.224Z,2.03
2023-04-18T22:22:06.566Z,2.60
2023-04-18T22:25:12.075Z,2.92
2023-04-18T22:28:15.433Z,3.78
2023-04-18T22:31:18.742Z,3.88
2023-04-18T22:34:22.251Z,3.00
2023-04-18T22:37:26.058Z,1.85
2023-04-18T22:40:29.598Z,1.52
2023-04-18T22:43:50.511Z,1.40
2023-04-18T22:46:55.473Z,1.70
2023-04-18T22:50:01.965Z,1.33
2023-04-18T22:53:05.344Z,2.10
2023-04-18T22:56:09.140Z,1.58
2023-04-18T22:59:13.356Z,1.67
2023-04-18T23:02:17.093Z,1.83
2023-04-18T23:05:21.073Z,5.45
2023-04-18T23:08:25.058Z,7.23
2023-04-18T23:11:28.248Z,4.87
2023-04-18T23:14:32.716Z,4.47
2023-04-18T23:17:36.373Z,3.72
2023-04-18T23:20:39.759Z,3.60
2023-04-18T23:23:43.202Z,3.90
2023-04-18T23:26:47.639Z,4.13
2023-04-18T23:29:51.247Z,4.45
2023-04-18T23:32:54.827Z,4.10
2023-04-18T23:35:58.409Z,4.18
2023-04-18T23:39:01.846Z,4.55
2023-04-18T23:42:05.526Z,4.57
2023-04-18T23:45:09.437Z,4.75
2023-04-18T23:48:13.251Z,5.10
2023-04-18T23:51:17.057Z,6.60
2023-04-18T23:54:20.262Z,5.70
2023-04-18T23:57:23.412Z,5.72
